sensor_id;sensor_type;location;lat;lon;timestamp;P1;durP1;ratioP1;P2;durP2;ratioP2
29200;SDS011;16244;51.956;12.980;2022-10-16T00:01:09;2.80;;;0.90;;
29200;SDS011;16244;51.956;12.980;2022-10-16T00:03:38;0.90;;;0.80;;
29200;SDS011;16244;51.956;12.980;2022-10-16T00:06:06;2.10;;;0.90;;
29200;SDS011;16244;51.956;12.980;2022-10-16T00:08:35;1.00;;;0.90;;
29200;SDS011;16244;51.956;12.980;2022-10-16T00:11:03;0.93;;;0.90;;
29200;SDS011;16244;51.956;12.980;2022-10-16T00:13:34;1.20;;;1.10;;
29200;SDS011;16244;51.956;12.980;2022-10-16T00:16:04;3.53;;;1.00;;
29200;SDS011;16244;51.956;12.980;2022-10-16T00:18:32;1.20;;;1.10;;
29200;SDS011;16244;51.956;12.980;2022-10-16T00:21:03;0.90;;;0.70;;
29200;SDS011;16244;51.956;12.980;2022-10-16T00:23:32;1.20;;;1.10;;
29200;SDS011;16244;51.956;12.980;2022-10-16T00:26:01;1.00;;;0.80;;
29200;SDS011;16244;51.956;12.980;2022-10-16T00:28:30;0.70;;;0.70;;
29200;SDS011;16244;51.956;12.980;2022-10-16T00:31:02;0.90;;;0.90;;
29200;SDS011;16244;51.956;12.980;2022-10-16T00:33:30;1.40;;;0.90;;
29200;SDS011;16244;51.956;12.980;2022-10-16T00:35:57;0.90;;;0.90;;
29200;SDS011;16244;51.956;12.980;2022-10-16T00:38:25;3.57;;;0.90;;
29200;SDS011;16244;51.956;12.980;2022-10-16T00:40:52;1.20;;;1.10;;
29200;SDS011;16244;51.956;12.980;2022-10-16T00:43:33;1.00;;;0.90;;
29200;SDS011;16244;51.956;12.980;2022-10-16T00:46:08;3.27;;;0.80;;
29200;SDS011;16244;51.956;12.980;2022-10-16T00:48:39;0.90;;;0.90;;
29200;SDS011;16244;51.956;12.980;2022-10-16T00:51:08;0.90;;;0.90;;
29200;SDS011;16244;51.956;12.980;2022-10-16T00:53:35;1.33;;;1.13;;
29200;SDS011;16244;51.956;12.980;2022-10-16T00:56:03;0.93;;;0.93;;
29200;SDS011;16244;51.956;12.980;2022-10-16T00:58:31;1.20;;;1.10;;
29200;SDS011;16244;51.956;12.980;2022-10-16T01:00:58;1.63;;;1.10;;
29200;SDS011;16244;51.956;12.980;2022-10-16T01:03:28;0.80;;;0.80;;
29200;SDS011;16244;51.956;12.980;2022-10-16T01:06:01;1.00;;;0.90;;
29200;SDS011;16244;51.956;12.980;2022-10-16T01:08:44;1.20;;;0.90;;
29200;SDS011;16244;51.956;12.980;2022-10-16T01:11:19;1.23;;;1.00;;
29200;SDS011;16244;51.956;12.980;2022-10-16T01:13:58;1.97;;;0.97;;
29200;SDS011;16244;51.956;12.980;2022-10-16T01:16:29;1.53;;;0.97;;
29200;SDS011;16244;51.956;12.980;2022-10-16T01:19:08;5.33;;;1.00;;
29200;SDS011;16244;51.956;12.980;2022-10-16T01:21:40;1.70;;;0.90;;
29200;SDS011;16244;51.956;12.980;2022-10-16T01:24:12;0.93;;;0.93;;
29200;SDS011;16244;51.956;12.980;2022-10-16T01:26:50;4.63;;;0.90;;
29200;SDS011;16244;51.956;12.980;2022-10-16T01:29:36;0.80;;;0.80;;
29200;SDS011;16244;51.956;12.980;2022-10-16T01:32:09;0.90;;;0.73;;
29200;SDS011;16244;51.956;12.980;2022-10-16T01:34:42;2.10;;;1.07;;
29200;SDS011;16244;51.956;12.980;2022-10-16T01:37:15;1.10;;;1.00;;
29200;SDS011;16244;51.956;12.980;2022-10-16T01:39:48;4.93;;;1.63;;
29200;SDS011;16244;51.956;12.980;2022-10-16T01:42:18;1.57;;;0.90;;
29200;SDS011;16244;51.956;12.980;2022-10-16T01:44:49;1.30;;;0.97;;
29200;SDS011;16244;51.956;12.980;2022-10-16T01:47:18;1.47;;;0.80;;
29200;SDS011;16244;51.956;12.980;2022-10-16T01:49:49;1.10;;;0.80;;
29200;SDS011;16244;51.956;12.980;2022-10-16T01:52:19;0.90;;;0.90;;
29200;SDS011;16244;51.956;12.980;2022-10-16T01:54:50;0.97;;;0.87;;
29200;SDS011;16244;51.956;12.980;2022-10-16T01:57:21;0.70;;;0.70;;
29200;SDS011;16244;51.956;12.980;2022-10-16T01:59:52;0.80;;;0.67;;
29200;SDS011;16244;51.956;12.980;2022-10-16T02:02:22;2.77;;;1.10;;
29200;SDS011;16244;51.956;12.980;2022-10-16T02:04:56;2.93;;;1.10;;
29200;SDS011;16244;51.956;12.980;2022-10-16T02:07:27;0.90;;;0.80;;
29200;SDS011;16244;51.956;12.980;2022-10-16T02:09:54;1.03;;;0.97;;
29200;SDS011;16244;51.956;12.980;2022-10-16T02:12:24;0.80;;;0.70;;
29200;SDS011;16244;51.956;12.980;2022-10-16T02:14:53;1.37;;;0.80;;
29200;SDS011;16244;51.956;12.980;2022-10-16T02:17:21;0.70;;;0.70;;
29200;SDS011;16244;51.956;12.980;2022-10-16T02:19:49;0.80;;;0.80;;
29200;SDS011;16244;51.956;12.980;2022-10-16T02:22:20;1.17;;;0.93;;
29200;SDS011;16244;51.956;12.980;2022-10-16T02:24:51;3.20;;;0.93;;
29200;SDS011;16244;51.956;12.980;2022-10-16T02:27:26;3.47;;;0.90;;
29200;SDS011;16244;51.956;12.980;2022-10-16T02:29:59;1.23;;;0.77;;
29200;SDS011;16244;51.956;12.980;2022-10-16T02:32:33;1.10;;;0.70;;
29200;SDS011;16244;51.956;12.980;2022-10-16T02:35:04;1.00;;;0.80;;
29200;SDS011;16244;51.956;12.980;2022-10-16T02:37:32;0.77;;;0.77;;
29200;SDS011;16244;51.956;12.980;2022-10-16T02:40:00;0.80;;;0.70;;
29200;SDS011;16244;51.956;12.980;2022-10-16T02:42:34;1.00;;;0.87;;
29200;SDS011;16244;51.956;12.980;2022-10-16T02:45:03;2.00;;;0.73;;
29200;SDS011;16244;51.956;12.980;2022-10-16T02:47:30;1.07;;;0.90;;
29200;SDS011;16244;51.956;12.980;2022-10-16T02:49:58;1.57;;;0.77;;
29200;SDS011;16244;51.956;12.980;2022-10-16T02:52:25;3.17;;;1.10;;
29200;SDS011;16244;51.956;12.980;2022-10-16T02:54:52;0.80;;;0.70;;
29200;SDS011;16244;51.956;12.980;2022-10-16T02:57:19;5.23;;;1.03;;
29200;SDS011;16244;51.956;12.980;2022-10-16T02:59:48;3.50;;;0.90;;
29200;SDS011;16244;51.956;12.980;2022-10-16T03:02:15;1.10;;;0.90;;
29200;SDS011;16244;51.956;12.980;2022-10-16T03:04:43;1.97;;;1.07;;
29200;SDS011;16244;51.956;12.980;2022-10-16T03:07:10;2.10;;;0.93;;
29200;SDS011;16244;51.956;12.980;2022-10-16T03:09:37;1.10;;;0.90;;
29200;SDS011;16244;51.956;12.980;2022-10-16T03:12:04;0.90;;;0.90;;
29200;SDS011;16244;51.956;12.980;2022-10-16T03:14:32;1.63;;;1.00;;
29200;SDS011;16244;51.956;12.980;2022-10-16T03:17:01;0.83;;;0.83;;
29200;SDS011;16244;51.956;12.980;2022-10-16T03:19:28;1.53;;;0.87;;
29200;SDS011;16244;51.956;12.980;2022-10-16T03:21:55;1.43;;;0.80;;
29200;SDS011;16244;51.956;12.980;2022-10-16T03:24:22;8.27;;;1.00;;
29200;SDS011;16244;51.956;12.980;2022-10-16T03:26:50;1.07;;;0.90;;
29200;SDS011;16244;51.956;12.980;2022-10-16T03:29:17;3.90;;;1.30;;
29200;SDS011;16244;51.956;12.980;2022-10-16T03:31:45;4.00;;;1.20;;
29200;SDS011;16244;51.956;12.980;2022-10-16T03:34:15;1.90;;;1.03;;
29200;SDS011;16244;51.956;12.980;2022-10-16T03:36:42;2.50;;;1.20;;
29200;SDS011;16244;51.956;12.980;2022-10-16T03:39:09;0.93;;;0.83;;
29200;SDS011;16244;51.956;12.980;2022-10-16T03:41:37;1.13;;;1.03;;
29200;SDS011;16244;51.956;12.980;2022-10-16T03:44:04;0.80;;;0.80;;
29200;SDS011;16244;51.956;12.980;2022-10-16T03:46:32;1.63;;;1.30;;
29200;SDS011;16244;51.956;12.980;2022-10-16T03:48:59;3.33;;;1.07;;
29200;SDS011;16244;51.956;12.980;2022-10-16T03:51:28;1.27;;;1.00;;
29200;SDS011;16244;51.956;12.980;2022-10-16T03:53:55;3.43;;;1.03;;
29200;SDS011;16244;51.956;12.980;2022-10-16T03:56:22;1.30;;;0.93;;
29200;SDS011;16244;51.956;12.980;2022-10-16T03:58:50;0.70;;;0.70;;
29200;SDS011;16244;51.956;12.980;2022-10-16T04:01:17;2.00;;;1.10;;
29200;SDS011;16244;51.956;12.980;2022-10-16T04:03:44;3.60;;;1.67;;
29200;SDS011;16244;51.956;12.980;2022-10-16T04:06:12;1.30;;;1.20;;
29200;SDS011;16244;51.956;12.980;2022-10-16T04:08:41;1.07;;;1.07;;
29200;SDS011;16244;51.956;12.980;2022-10-16T04:11:09;1.30;;;1.20;;
29200;SDS011;16244;51.956;12.980;2022-10-16T04:13:36;6.93;;;1.23;;
29200;SDS011;16244;51.956;12.980;2022-10-16T04:16:04;1.40;;;1.20;;
29200;SDS011;16244;51.956;12.980;2022-10-16T04:18:32;2.83;;;1.30;;
29200;SDS011;16244;51.956;12.980;2022-10-16T04:21:01;11.90;;;1.10;;
29200;SDS011;16244;51.956;12.980;2022-10-16T04:23:30;2.77;;;1.67;;
29200;SDS011;16244;51.956;12.980;2022-10-16T04:25:59;2.57;;;1.30;;
29200;SDS011;16244;51.956;12.980;2022-10-16T04:28:26;1.17;;;1.17;;
29200;SDS011;16244;51.956;12.980;2022-10-16T04:30:54;1.20;;;1.10;;
29200;SDS011;16244;51.956;12.980;2022-10-16T04:33:21;1.53;;;1.30;;
29200;SDS011;16244;51.956;12.980;2022-10-16T04:35:48;2.00;;;1.90;;
29200;SDS011;16244;51.956;12.980;2022-10-16T04:38:23;1.20;;;1.10;;
29200;SDS011;16244;51.956;12.980;2022-10-16T04:40:50;1.23;;;1.13;;
29200;SDS011;16244;51.956;12.980;2022-10-16T04:43:19;1.37;;;1.30;;
29200;SDS011;16244;51.956;12.980;2022-10-16T04:45:47;3.20;;;1.27;;
29200;SDS011;16244;51.956;12.980;2022-10-16T04:48:16;1.57;;;0.87;;
29200;SDS011;16244;51.956;12.980;2022-10-16T04:50:43;1.17;;;1.10;;
29200;SDS011;16244;51.956;12.980;2022-10-16T04:53:10;1.87;;;1.10;;
29200;SDS011;16244;51.956;12.980;2022-10-16T04:55:38;1.43;;;1.00;;
29200;SDS011;16244;51.956;12.980;2022-10-16T04:58:05;4.73;;;1.20;;
29200;SDS011;16244;51.956;12.980;2022-10-16T05:00:34;2.60;;;1.30;;
29200;SDS011;16244;51.956;12.980;2022-10-16T05:03:02;1.53;;;0.80;;
29200;SDS011;16244;51.956;12.980;2022-10-16T05:05:33;0.90;;;0.90;;
29200;SDS011;16244;51.956;12.980;2022-10-16T05:08:00;9.43;;;1.10;;
29200;SDS011;16244;51.956;12.980;2022-10-16T05:10:28;1.20;;;1.00;;
29200;SDS011;16244;51.956;12.980;2022-10-16T05:12:55;2.03;;;1.83;;
29200;SDS011;16244;51.956;12.980;2022-10-16T05:15:22;2.37;;;0.80;;
29200;SDS011;16244;51.956;12.980;2022-10-16T05:17:53;1.10;;;0.90;;
29200;SDS011;16244;51.956;12.980;2022-10-16T05:20:21;12.50;;;1.43;;
29200;SDS011;16244;51.956;12.980;2022-10-16T05:22:48;7.30;;;1.27;;
29200;SDS011;16244;51.956;12.980;2022-10-16T05:25:15;0.90;;;0.90;;
29200;SDS011;16244;51.956;12.980;2022-10-16T05:27:43;3.00;;;0.93;;
29200;SDS011;16244;51.956;12.980;2022-10-16T05:30:13;1.23;;;1.00;;
29200;SDS011;16244;51.956;12.980;2022-10-16T05:32:41;2.00;;;0.73;;
29200;SDS011;16244;51.956;12.980;2022-10-16T05:35:10;3.17;;;1.00;;
29200;SDS011;16244;51.956;12.980;2022-10-16T05:37:37;2.00;;;0.97;;
29200;SDS011;16244;51.956;12.980;2022-10-16T05:40:04;0.87;;;0.87;;
29200;SDS011;16244;51.956;12.980;2022-10-16T05:42:32;2.60;;;1.10;;
29200;SDS011;16244;51.956;12.980;2022-10-16T05:44:59;2.40;;;1.00;;
29200;SDS011;16244;51.956;12.980;2022-10-16T05:47:27;6.97;;;1.27;;
29200;SDS011;16244;51.956;12.980;2022-10-16T05:49:54;1.30;;;1.20;;
29200;SDS011;16244;51.956;12.980;2022-10-16T05:52:23;7.70;;;1.03;;
29200;SDS011;16244;51.956;12.980;2022-10-16T05:54:50;0.90;;;0.80;;
29200;SDS011;16244;51.956;12.980;2022-10-16T05:57:17;2.17;;;1.33;;
29200;SDS011;16244;51.956;12.980;2022-10-16T05:59:44;1.90;;;1.30;;
29200;SDS011;16244;51.956;12.980;2022-10-16T06:02:12;1.10;;;1.10;;
29200;SDS011;16244;51.956;12.980;2022-10-16T06:04:40;2.00;;;1.00;;
29200;SDS011;16244;51.956;12.980;2022-10-16T06:07:07;1.60;;;1.30;;
29200;SDS011;16244;51.956;12.980;2022-10-16T06:09:36;0.90;;;0.90;;
29200;SDS011;16244;51.956;12.980;2022-10-16T06:12:03;4.53;;;1.03;;
29200;SDS011;16244;51.956;12.980;2022-10-16T06:14:30;7.70;;;1.30;;
29200;SDS011;16244;51.956;12.980;2022-10-16T06:16:58;0.77;;;0.77;;
29200;SDS011;16244;51.956;12.980;2022-10-16T06:19:25;2.87;;;0.83;;
29200;SDS011;16244;51.956;12.980;2022-10-16T06:21:53;6.83;;;0.93;;
29200;SDS011;16244;51.956;12.980;2022-10-16T06:24:20;1.33;;;1.30;;
29200;SDS011;16244;51.956;12.980;2022-10-16T06:26:50;1.17;;;1.00;;
29200;SDS011;16244;51.956;12.980;2022-10-16T06:29:17;4.40;;;1.00;;
29200;SDS011;16244;51.956;12.980;2022-10-16T06:31:44;0.80;;;0.80;;
29200;SDS011;16244;51.956;12.980;2022-10-16T06:34:12;2.13;;;1.20;;
29200;SDS011;16244;51.956;12.980;2022-10-16T06:36:40;1.50;;;1.40;;
29200;SDS011;16244;51.956;12.980;2022-10-16T06:39:09;1.80;;;1.70;;
29200;SDS011;16244;51.956;12.980;2022-10-16T06:41:36;1.60;;;1.50;;
29200;SDS011;16244;51.956;12.980;2022-10-16T06:44:06;1.80;;;1.70;;
29200;SDS011;16244;51.956;12.980;2022-10-16T06:46:34;2.13;;;1.90;;
29200;SDS011;16244;51.956;12.980;2022-10-16T06:49:01;7.90;;;2.07;;
29200;SDS011;16244;51.956;12.980;2022-10-16T06:51:29;1.30;;;1.20;;
29200;SDS011;16244;51.956;12.980;2022-10-16T06:54:00;1.40;;;1.10;;
29200;SDS011;16244;51.956;12.980;2022-10-16T06:56:28;2.83;;;0.90;;
29200;SDS011;16244;51.956;12.980;2022-10-16T06:58:56;2.60;;;0.90;;
29200;SDS011;16244;51.956;12.980;2022-10-16T07:01:25;2.23;;;1.10;;
29200;SDS011;16244;51.956;12.980;2022-10-16T07:03:53;1.20;;;1.10;;
29200;SDS011;16244;51.956;12.980;2022-10-16T07:06:22;4.03;;;2.97;;
29200;SDS011;16244;51.956;12.980;2022-10-16T07:08:50;2.67;;;2.47;;
29200;SDS011;16244;51.956;12.980;2022-10-16T07:11:18;1.07;;;1.00;;
29200;SDS011;16244;51.956;12.980;2022-10-16T07:13:47;2.20;;;1.80;;
29200;SDS011;16244;51.956;12.980;2022-10-16T07:16:16;0.80;;;0.70;;
29200;SDS011;16244;51.956;12.980;2022-10-16T07:18:47;3.77;;;0.60;;
29200;SDS011;16244;51.956;12.980;2022-10-16T07:21:16;3.40;;;0.70;;
29200;SDS011;16244;51.956;12.980;2022-10-16T07:23:49;9.07;;;2.90;;
29200;SDS011;16244;51.956;12.980;2022-10-16T07:26:16;2.10;;;0.60;;
29200;SDS011;16244;51.956;12.980;2022-10-16T07:28:44;1.53;;;0.70;;
29200;SDS011;16244;51.956;12.980;2022-10-16T07:31:12;1.90;;;0.67;;
29200;SDS011;16244;51.956;12.980;2022-10-16T07:33:41;6.53;;;1.07;;
29200;SDS011;16244;51.956;12.980;2022-10-16T07:36:11;1.90;;;0.70;;
29200;SDS011;16244;51.956;12.980;2022-10-16T07:38:39;1.87;;;0.60;;
29200;SDS011;16244;51.956;12.980;2022-10-16T07:41:09;0.80;;;0.80;;
29200;SDS011;16244;51.956;12.980;2022-10-16T07:43:38;0.70;;;0.50;;
29200;SDS011;16244;51.956;12.980;2022-10-16T07:46:05;0.80;;;0.60;;
29200;SDS011;16244;51.956;12.980;2022-10-16T07:48:33;0.70;;;0.60;;
29200;SDS011;16244;51.956;12.980;2022-10-16T07:51:02;0.70;;;0.57;;
29200;SDS011;16244;51.956;12.980;2022-10-16T07:53:32;1.53;;;0.90;;
29200;SDS011;16244;51.956;12.980;2022-10-16T07:56:00;2.40;;;0.80;;
29200;SDS011;16244;51.956;12.980;2022-10-16T07:58:28;2.47;;;1.83;;
29200;SDS011;16244;51.956;12.980;2022-10-16T08:00:57;5.37;;;4.07;;
29200;SDS011;16244;51.956;12.980;2022-10-16T08:03:24;9.20;;;6.03;;
29200;SDS011;16244;51.956;12.980;2022-10-16T08:05:52;6.93;;;3.93;;
29200;SDS011;16244;51.956;12.980;2022-10-16T08:08:20;33.97;;;15.27;;
29200;SDS011;16244;51.956;12.980;2022-10-16T08:10:48;47.00;;;20.70;;
29200;SDS011;16244;51.956;12.980;2022-10-16T08:13:16;21.33;;;10.10;;
29200;SDS011;16244;51.956;12.980;2022-10-16T08:15:43;4.23;;;3.40;;
29200;SDS011;16244;51.956;12.980;2022-10-16T08:18:11;1.10;;;1.00;;
29200;SDS011;16244;51.956;12.980;2022-10-16T08:20:39;2.77;;;0.77;;
29200;SDS011;16244;51.956;12.980;2022-10-16T08:23:08;1.20;;;1.10;;
29200;SDS011;16244;51.956;12.980;2022-10-16T08:25:36;1.13;;;1.00;;
29200;SDS011;16244;51.956;12.980;2022-10-16T08:28:05;2.73;;;0.70;;
29200;SDS011;16244;51.956;12.980;2022-10-16T08:30:33;1.73;;;1.03;;
29200;SDS011;16244;51.956;12.980;2022-10-16T08:33:01;1.07;;;0.70;;
29200;SDS011;16244;51.956;12.980;2022-10-16T08:35:28;0.80;;;0.60;;
29200;SDS011;16244;51.956;12.980;2022-10-16T08:37:56;0.77;;;0.63;;
29200;SDS011;16244;51.956;12.980;2022-10-16T08:40:24;3.53;;;0.70;;
29200;SDS011;16244;51.956;12.980;2022-10-16T08:42:57;1.53;;;0.80;;
29200;SDS011;16244;51.956;12.980;2022-10-16T08:45:43;2.53;;;1.10;;
29200;SDS011;16244;51.956;12.980;2022-10-16T08:48:22;2.80;;;1.20;;
29200;SDS011;16244;51.956;12.980;2022-10-16T08:50:54;0.70;;;0.70;;
29200;SDS011;16244;51.956;12.980;2022-10-16T08:53:23;4.43;;;2.10;;
29200;SDS011;16244;51.956;12.980;2022-10-16T08:55:55;3.13;;;0.80;;
29200;SDS011;16244;51.956;12.980;2022-10-16T08:58:26;1.20;;;0.60;;
29200;SDS011;16244;51.956;12.980;2022-10-16T09:00:57;1.30;;;0.60;;
29200;SDS011;16244;51.956;12.980;2022-10-16T09:03:40;1.47;;;0.70;;
29200;SDS011;16244;51.956;12.980;2022-10-16T09:06:35;0.70;;;0.60;;
29200;SDS011;16244;51.956;12.980;2022-10-16T09:09:16;0.80;;;0.60;;
29200;SDS011;16244;51.956;12.980;2022-10-16T09:12:03;1.20;;;0.50;;
29200;SDS011;16244;51.956;12.980;2022-10-16T09:14:39;0.80;;;0.50;;
29200;SDS011;16244;51.956;12.980;2022-10-16T09:17:24;1.57;;;0.60;;
29200;SDS011;16244;51.956;12.980;2022-10-16T09:20:03;9.10;;;0.70;;
29200;SDS011;16244;51.956;12.980;2022-10-16T09:22:42;2.43;;;2.23;;
29200;SDS011;16244;51.956;12.980;2022-10-16T09:25:10;1.63;;;0.60;;
29200;SDS011;16244;51.956;12.980;2022-10-16T09:27:39;1.63;;;0.70;;
29200;SDS011;16244;51.956;12.980;2022-10-16T09:30:10;0.90;;;0.50;;
29200;SDS011;16244;51.956;12.980;2022-10-16T09:32:41;0.70;;;0.53;;
29200;SDS011;16244;51.956;12.980;2022-10-16T09:35:11;1.77;;;0.60;;
29200;SDS011;16244;51.956;12.980;2022-10-16T09:37:41;1.20;;;0.80;;
29200;SDS011;16244;51.956;12.980;2022-10-16T09:40:12;1.40;;;0.70;;
29200;SDS011;16244;51.956;12.980;2022-10-16T09:42:40;5.53;;;1.20;;
29200;SDS011;16244;51.956;12.980;2022-10-16T09:45:19;1.93;;;0.70;;
29200;SDS011;16244;51.956;12.980;2022-10-16T09:47:50;9.17;;;0.60;;
29200;SDS011;16244;51.956;12.980;2022-10-16T09:50:22;1.70;;;0.50;;
29200;SDS011;16244;51.956;12.980;2022-10-16T09:53:02;1.40;;;0.53;;
29200;SDS011;16244;51.956;12.980;2022-10-16T09:55:31;1.47;;;0.70;;
29200;SDS011;16244;51.956;12.980;2022-10-16T09:57:58;2.63;;;0.60;;
29200;SDS011;16244;51.956;12.980;2022-10-16T10:00:25;3.83;;;0.50;;
29200;SDS011;16244;51.956;12.980;2022-10-16T10:02:53;4.93;;;0.50;;
29200;SDS011;16244;51.956;12.980;2022-10-16T10:05:22;1.20;;;0.50;;
29200;SDS011;16244;51.956;12.980;2022-10-16T10:07:54;0.80;;;0.60;;
29200;SDS011;16244;51.956;12.980;2022-10-16T10:10:23;1.30;;;0.50;;
29200;SDS011;16244;51.956;12.980;2022-10-16T10:12:52;0.80;;;0.50;;
29200;SDS011;16244;51.956;12.980;2022-10-16T10:15:21;1.53;;;0.50;;
29200;SDS011;16244;51.956;12.980;2022-10-16T10:17:50;2.80;;;0.40;;
29200;SDS011;16244;51.956;12.980;2022-10-16T10:20:23;4.00;;;0.50;;
29200;SDS011;16244;51.956;12.980;2022-10-16T10:22:53;1.93;;;0.40;;
29200;SDS011;16244;51.956;12.980;2022-10-16T10:25:26;0.90;;;0.60;;
29200;SDS011;16244;51.956;12.980;2022-10-16T10:28:09;0.90;;;0.50;;
29200;SDS011;16244;51.956;12.980;2022-10-16T10:30:49;1.90;;;0.60;;
29200;SDS011;16244;51.956;12.980;2022-10-16T10:33:25;1.30;;;0.53;;
29200;SDS011;16244;51.956;12.980;2022-10-16T10:36:01;1.23;;;0.50;;
29200;SDS011;16244;51.956;12.980;2022-10-16T10:38:39;1.13;;;0.60;;
29200;SDS011;16244;51.956;12.980;2022-10-16T10:41:22;2.47;;;0.50;;
29200;SDS011;16244;51.956;12.980;2022-10-16T10:44:13;0.93;;;0.57;;
29200;SDS011;16244;51.956;12.980;2022-10-16T10:46:48;1.00;;;0.50;;
29200;SDS011;16244;51.956;12.980;2022-10-16T10:49:28;12.63;;;0.73;;
29200;SDS011;16244;51.956;12.980;2022-10-16T10:52:30;5.35;;;0.60;;
29200;SDS011;16244;51.956;12.980;2022-10-16T10:57:07;4.30;;;1.43;;
29200;SDS011;16244;51.956;12.980;2022-10-16T11:02:41;1.03;;;0.50;;
29200;SDS011;16244;51.956;12.980;2022-10-16T11:08:10;1.93;;;0.90;;
29200;SDS011;16244;51.956;12.980;2022-10-16T11:10:45;3.07;;;1.20;;
29200;SDS011;16244;51.956;12.980;2022-10-16T11:13:23;3.97;;;0.50;;
29200;SDS011;16244;51.956;12.980;2022-10-16T11:15:58;0.90;;;0.40;;
29200;SDS011;16244;51.956;12.980;2022-10-16T11:18:30;2.70;;;0.50;;
29200;SDS011;16244;51.956;12.980;2022-10-16T11:21:05;1.53;;;0.50;;
29200;SDS011;16244;51.956;12.980;2022-10-16T11:23:38;2.87;;;0.67;;
29200;SDS011;16244;51.956;12.980;2022-10-16T11:26:11;2.13;;;0.90;;
29200;SDS011;16244;51.956;12.980;2022-10-16T11:28:45;1.77;;;0.70;;
29200;SDS011;16244;51.956;12.980;2022-10-16T11:31:16;8.30;;;4.00;;
29200;SDS011;16244;51.956;12.980;2022-10-16T11:33:49;6.07;;;3.00;;
29200;SDS011;16244;51.956;12.980;2022-10-16T11:36:22;3.30;;;0.63;;
29200;SDS011;16244;51.956;12.980;2022-10-16T11:38:55;2.50;;;0.70;;
29200;SDS011;16244;51.956;12.980;2022-10-16T11:41:27;4.10;;;0.57;;
29200;SDS011;16244;51.956;12.980;2022-10-16T11:44:09;0.90;;;0.50;;
29200;SDS011;16244;51.956;12.980;2022-10-16T11:46:45;1.17;;;0.50;;
29200;SDS011;16244;51.956;12.980;2022-10-16T11:49:18;1.20;;;0.60;;
29200;SDS011;16244;51.956;12.980;2022-10-16T11:51:48;3.57;;;0.43;;
29200;SDS011;16244;51.956;12.980;2022-10-16T11:54:24;1.20;;;0.50;;
29200;SDS011;16244;51.956;12.980;2022-10-16T11:56:59;0.90;;;0.40;;
29200;SDS011;16244;51.956;12.980;2022-10-16T11:59:32;3.60;;;0.43;;
29200;SDS011;16244;51.956;12.980;2022-10-16T12:02:13;8.20;;;0.50;;
29200;SDS011;16244;51.956;12.980;2022-10-16T12:04:54;5.07;;;0.57;;
29200;SDS011;16244;51.956;12.980;2022-10-16T12:07:32;1.87;;;0.40;;
29200;SDS011;16244;51.956;12.980;2022-10-16T12:10:10;3.00;;;0.40;;
29200;SDS011;16244;51.956;12.980;2022-10-16T12:12:45;0.90;;;0.40;;
29200;SDS011;16244;51.956;12.980;2022-10-16T12:15:21;1.30;;;0.53;;
29200;SDS011;16244;51.956;12.980;2022-10-16T12:17:50;3.17;;;0.90;;
29200;SDS011;16244;51.956;12.980;2022-10-16T12:20:20;2.60;;;0.50;;
29200;SDS011;16244;51.956;12.980;2022-10-16T12:22:50;1.10;;;0.40;;
29200;SDS011;16244;51.956;12.980;2022-10-16T12:25:22;1.10;;;0.50;;
29200;SDS011;16244;51.956;12.980;2022-10-16T12:27:54;1.03;;;0.50;;
29200;SDS011;16244;51.956;12.980;2022-10-16T12:30:27;2.70;;;0.50;;
29200;SDS011;16244;51.956;12.980;2022-10-16T12:32:57;1.57;;;0.50;;
29200;SDS011;16244;51.956;12.980;2022-10-16T12:35:28;4.13;;;0.40;;
29200;SDS011;16244;51.956;12.980;2022-10-16T12:38:04;1.40;;;0.50;;
29200;SDS011;16244;51.956;12.980;2022-10-16T12:40:42;1.67;;;0.50;;
29200;SDS011;16244;51.956;12.980;2022-10-16T12:43:12;1.17;;;0.50;;
29200;SDS011;16244;51.956;12.980;2022-10-16T12:45:59;2.50;;;0.80;;
29200;SDS011;16244;51.956;12.980;2022-10-16T12:48:29;9.13;;;0.60;;
29200;SDS011;16244;51.956;12.980;2022-10-16T12:50:56;1.73;;;0.50;;
29200;SDS011;16244;51.956;12.980;2022-10-16T12:53:24;1.00;;;0.40;;
29200;SDS011;16244;51.956;12.980;2022-10-16T12:55:56;1.00;;;0.33;;
29200;SDS011;16244;51.956;12.980;2022-10-16T12:58:43;0.90;;;0.40;;
29200;SDS011;16244;51.956;12.980;2022-10-16T13:01:29;5.17;;;0.50;;
29200;SDS011;16244;51.956;12.980;2022-10-16T13:04:15;1.50;;;0.40;;
29200;SDS011;16244;51.956;12.980;2022-10-16T13:06:54;0.90;;;0.40;;
29200;SDS011;16244;51.956;12.980;2022-10-16T13:09:31;0.90;;;0.40;;
29200;SDS011;16244;51.956;12.980;2022-10-16T13:12:11;2.17;;;0.50;;
29200;SDS011;16244;51.956;12.980;2022-10-16T13:15:00;1.00;;;0.40;;
29200;SDS011;16244;51.956;12.980;2022-10-16T13:17:40;1.30;;;0.40;;
29200;SDS011;16244;51.956;12.980;2022-10-16T13:20:17;1.67;;;0.40;;
29200;SDS011;16244;51.956;12.980;2022-10-16T13:22:51;0.90;;;0.40;;
29200;SDS011;16244;51.956;12.980;2022-10-16T13:25:28;2.90;;;0.40;;
29200;SDS011;16244;51.956;12.980;2022-10-16T13:28:06;1.70;;;0.50;;
29200;SDS011;16244;51.956;12.980;2022-10-16T13:30:36;1.10;;;0.40;;
29200;SDS011;16244;51.956;12.980;2022-10-16T13:33:10;2.87;;;0.40;;
29200;SDS011;16244;51.956;12.980;2022-10-16T13:35:46;0.90;;;0.30;;
29200;SDS011;16244;51.956;12.980;2022-10-16T13:38:16;1.97;;;0.40;;
29200;SDS011;16244;51.956;12.980;2022-10-16T13:40:48;1.23;;;0.40;;
29200;SDS011;16244;51.956;12.980;2022-10-16T13:43:17;1.67;;;0.37;;
29200;SDS011;16244;51.956;12.980;2022-10-16T13:45:52;1.40;;;0.40;;
29200;SDS011;16244;51.956;12.980;2022-10-16T13:48:23;2.37;;;0.40;;
29200;SDS011;16244;51.956;12.980;2022-10-16T13:51:00;0.90;;;0.40;;
29200;SDS011;16244;51.956;12.980;2022-10-16T13:53:29;4.20;;;0.40;;
29200;SDS011;16244;51.956;12.980;2022-10-16T13:55:58;2.00;;;0.60;;
29200;SDS011;16244;51.956;12.980;2022-10-16T13:58:26;4.50;;;0.40;;
29200;SDS011;16244;51.956;12.980;2022-10-16T14:00:54;5.03;;;0.40;;
29200;SDS011;16244;51.956;12.980;2022-10-16T14:03:24;1.00;;;0.30;;
29200;SDS011;16244;51.956;12.980;2022-10-16T14:05:53;1.23;;;0.40;;
29200;SDS011;16244;51.956;12.980;2022-10-16T14:08:22;1.77;;;0.60;;
29200;SDS011;16244;51.956;12.980;2022-10-16T14:10:51;1.13;;;0.47;;
29200;SDS011;16244;51.956;12.980;2022-10-16T14:13:22;1.13;;;0.40;;
29200;SDS011;16244;51.956;12.980;2022-10-16T14:15:55;1.20;;;0.50;;
29200;SDS011;16244;51.956;12.980;2022-10-16T14:18:25;5.63;;;0.60;;
29200;SDS011;16244;51.956;12.980;2022-10-16T14:20:54;3.30;;;0.90;;
29200;SDS011;16244;51.956;12.980;2022-10-16T14:23:31;4.23;;;1.43;;
29200;SDS011;16244;51.956;12.980;2022-10-16T14:26:13;2.07;;;0.83;;
29200;SDS011;16244;51.956;12.980;2022-10-16T14:28:43;2.40;;;1.10;;
29200;SDS011;16244;51.956;12.980;2022-10-16T14:31:23;2.50;;;1.10;;
29200;SDS011;16244;51.956;12.980;2022-10-16T14:33:54;4.47;;;0.83;;
29200;SDS011;16244;51.956;12.980;2022-10-16T14:36:22;2.20;;;0.90;;
29200;SDS011;16244;51.956;12.980;2022-10-16T14:38:53;2.03;;;0.60;;
29200;SDS011;16244;51.956;12.980;2022-10-16T14:41:28;1.70;;;0.80;;
29200;SDS011;16244;51.956;12.980;2022-10-16T14:43:56;2.40;;;0.97;;
29200;SDS011;16244;51.956;12.980;2022-10-16T14:46:30;1.30;;;0.60;;
29200;SDS011;16244;51.956;12.980;2022-10-16T14:49:02;1.43;;;0.60;;
29200;SDS011;16244;51.956;12.980;2022-10-16T14:51:39;5.30;;;2.13;;
29200;SDS011;16244;51.956;12.980;2022-10-16T14:54:10;7.83;;;3.37;;
29200;SDS011;16244;51.956;12.980;2022-10-16T14:56:42;6.60;;;2.10;;
29200;SDS011;16244;51.956;12.980;2022-10-16T14:59:13;6.17;;;2.47;;
29200;SDS011;16244;51.956;12.980;2022-10-16T15:01:43;7.23;;;3.03;;
29200;SDS011;16244;51.956;12.980;2022-10-16T15:04:12;7.37;;;2.60;;